sensor_id;sensor_type;location;lat;lon;timestamp;pressure;altitude;pressure_sealevel;temperature;humidity
53619;BME280;68717;53.040;18.488;2024-03-06T00:00:01;101727.88;;;5.76;100.00
53619;BME280;68717;53.040;18.488;2024-03-06T00:00:15;101739.38;;;5.77;100.00
53619;BME280;68717;53.040;18.488;2024-03-06T00:00:50;101739.31;;;5.78;100.00
53619;BME280;68717;53.040;18.488;2024-03-06T00:01:24;101731.34;;;5.78;100.00
53619;BME280;68717;53.040;18.488;2024-03-06T00:01:37;101732.28;;;5.77;100.00
53619;BME280;68717;53.040;18.488;2024-03-06T00:01:50;101731.34;;;5.78;100.00
53619;BME280;68717;53.040;18.488;2024-03-06T00:02:03;101729.63;;;5.77;100.00
53619;BME280;68717;53.040;18.488;2024-03-06T00:02:16;101726.00;;;5.78;100.00
53619;BME280;68717;53.040;18.488;2024-03-06T00:02:29;101732.28;;;5.77;100.00
53619;BME280;68717;53.040;18.488;2024-03-06T00:02:43;101729.63;;;5.77;100.00
53619;BME280;68717;53.040;18.488;2024-03-06T00:02:57;101725.22;;;5.76;100.00
53619;BME280;68717;53.040;18.488;2024-03-06T00:03:10;101731.34;;;5.78;100.00
53619;BME280;68717;53.040;18.488;2024-03-06T00:03:23;101721.63;;;5.77;100.00
53619;BME280;68717;53.040;18.488;2024-03-06T00:03:36;101732.28;;;5.77;100.00
53619;BME280;68717;53.040;18.488;2024-03-06T00:03:49;101730.47;;;5.78;100.00
53619;BME280;68717;53.040;18.488;2024-03-06T00:04:03;101724.31;;;5.77;100.00
53619;BME280;68717;53.040;18.488;2024-03-06T00:04:17;101718.09;;;5.77;100.00
53619;BME280;68717;53.040;18.488;2024-03-06T00:04:31;101721.63;;;5.77;100.00
53619;BME280;68717;53.040;18.488;2024-03-06T00:04:45;101727.88;;;5.76;100.00
53619;BME280;68717;53.040;18.488;2024-03-06T00:04:59;101725.22;;;5.76;100.00
53619;BME280;68717;53.040;18.488;2024-03-06T00:05:12;101730.53;;;5.76;100.00
53619;BME280;68717;53.040;18.488;2024-03-06T00:05:25;101725.22;;;5.76;100.00
53619;BME280;68717;53.040;18.488;2024-03-06T00:05:38;101730.53;;;5.76;100.00
53619;BME280;68717;53.040;18.488;2024-03-06T00:05:51;101729.69;;;5.76;100.00
53619;BME280;68717;53.040;18.488;2024-03-06T00:06:05;101733.22;;;5.76;100.00
53619;BME280;68717;53.040;18.488;2024-03-06T00:06:18;101733.22;;;5.76;100.00
53619;BME280;68717;53.040;18.488;2024-03-06T00:06:31;101735.00;;;5.76;100.00
53619;BME280;68717;53.040;18.488;2024-03-06T00:06:44;101727.94;;;5.74;100.00
53619;BME280;68717;53.040;18.488;2024-03-06T00:06:57;101728.84;;;5.75;100.00
53619;BME280;68717;53.040;18.488;2024-03-06T00:07:12;101732.34;;;5.76;100.00
53619;BME280;68717;53.040;18.488;2024-03-06T00:07:25;101732.34;;;5.76;100.00
53619;BME280;68717;53.040;18.488;2024-03-06T00:07:39;101738.59;;;5.74;100.00
53619;BME280;68717;53.040;18.488;2024-03-06T00:07:52;101734.16;;;5.75;100.00
53619;BME280;68717;53.040;18.488;2024-03-06T00:08:06;101734.16;;;5.75;100.00
53619;BME280;68717;53.040;18.488;2024-03-06T00:08:19;101725.28;;;5.74;100.00
53619;BME280;68717;53.040;18.488;2024-03-06T00:08:32;101727.09;;;5.74;100.00
53619;BME280;68717;53.040;18.488;2024-03-06T00:08:46;101731.50;;;5.75;100.00
53619;BME280;68717;53.040;18.488;2024-03-06T00:08:59;101735.09;;;5.74;100.00
53619;BME280;68717;53.040;18.488;2024-03-06T00:09:12;101731.50;;;5.75;100.00
53619;BME280;68717;53.040;18.488;2024-03-06T00:09:25;101729.75;;;5.74;100.00
53619;BME280;68717;53.040;18.488;2024-03-06T00:09:39;101727.88;;;5.76;100.00
53619;BME280;68717;53.040;18.488;2024-03-06T00:09:52;101732.34;;;5.76;100.00
53619;BME280;68717;53.040;18.488;2024-03-06T00:10:06;101731.50;;;5.75;100.00
53619;BME280;68717;53.040;18.488;2024-03-06T00:10:20;101727.88;;;5.76;100.00
53619;BME280;68717;53.040;18.488;2024-03-06T00:10:33;101723.50;;;5.75;100.00
53619;BME280;68717;53.040;18.488;2024-03-06T00:10:47;101731.41;;;5.77;100.00
53619;BME280;68717;53.040;18.488;2024-03-06T00:11:00;101729.63;;;5.77;100.00
53619;BME280;68717;53.040;18.488;2024-03-06T00:11:13;101727.88;;;5.76;100.00
53619;BME280;68717;53.040;18.488;2024-03-06T00:11:26;101728.75;;;5.77;100.00
53619;BME280;68717;53.040;18.488;2024-03-06T00:11:39;101725.22;;;5.76;100.00
53619;BME280;68717;53.040;18.488;2024-03-06T00:11:53;101719.84;;;5.78;100.00
53619;BME280;68717;53.040;18.488;2024-03-06T00:12:06;101722.50;;;5.78;100.00
53619;BME280;68717;53.040;18.488;2024-03-06T00:12:20;101723.34;;;5.78;100.00
53619;BME280;68717;53.040;18.488;2024-03-06T00:12:34;101726.00;;;5.78;100.00
53619;BME280;68717;53.040;18.488;2024-03-06T00:12:47;101726.00;;;5.78;100.00
53619;BME280;68717;53.040;18.488;2024-03-06T00:13:00;101720.69;;;5.78;100.00
53619;BME280;68717;53.040;18.488;2024-03-06T00:13:13;101731.34;;;5.78;100.00
53619;BME280;68717;53.040;18.488;2024-03-06T00:13:26;101724.19;;;5.79;100.00
53619;BME280;68717;53.040;18.488;2024-03-06T00:13:39;101725.94;;;5.80;100.00
53619;BME280;68717;53.040;18.488;2024-03-06T00:13:53;101724.13;;;5.80;100.00
53619;BME280;68717;53.040;18.488;2024-03-06T00:14:06;101725.94;;;5.80;100.00
53619;BME280;68717;53.040;18.488;2024-03-06T00:14:19;101722.44;;;5.79;100.00
53619;BME280;68717;53.040;18.488;2024-03-06T00:14:34;101722.44;;;5.79;100.00
53619;BME280;68717;53.040;18.488;2024-03-06T00:14:49;101721.47;;;5.80;100.00
53619;BME280;68717;53.040;18.488;2024-03-06T00:15:02;101719.66;;;5.81;100.00
53619;BME280;68717;53.040;18.488;2024-03-06T00:15:15;101727.66;;;5.81;100.00
53619;BME280;68717;53.040;18.488;2024-03-06T00:15:30;101726.78;;;5.80;100.00
53619;BME280;68717;53.040;18.488;2024-03-06T00:15:42;101729.47;;;5.80;100.00
53619;BME280;68717;53.040;18.488;2024-03-06T00:15:57;101727.66;;;5.81;100.00
53619;BME280;68717;53.040;18.488;2024-03-06T00:16:10;101726.78;;;5.80;100.00
53619;BME280;68717;53.040;18.488;2024-03-06T00:16:23;101720.50;;;5.81;100.00
53619;BME280;68717;53.040;18.488;2024-03-06T00:16:36;101726.72;;;5.82;100.00
53619;BME280;68717;53.040;18.488;2024-03-06T00:16:50;101720.50;;;5.81;100.00
53619;BME280;68717;53.040;18.488;2024-03-06T00:17:04;101726.72;;;5.82;100.00
53619;BME280;68717;53.040;18.488;2024-03-06T00:17:18;101727.59;;;5.82;100.00
53619;BME280;68717;53.040;18.488;2024-03-06T00:17:31;101721.41;;;5.82;100.00
53619;BME280;68717;53.040;18.488;2024-03-06T00:17:44;101729.28;;;5.83;100.00
53619;BME280;68717;53.040;18.488;2024-03-06T00:17:58;101727.59;;;5.82;100.00
53619;BME280;68717;53.040;18.488;2024-03-06T00:18:12;101729.28;;;5.83;100.00
53619;BME280;68717;53.040;18.488;2024-03-06T00:18:25;101721.31;;;5.83;100.00
53619;BME280;68717;53.040;18.488;2024-03-06T00:18:38;101729.28;;;5.83;100.00
53619;BME280;68717;53.040;18.488;2024-03-06T00:18:52;101727.50;;;5.84;100.00
53619;BME280;68717;53.040;18.488;2024-03-06T00:19:05;101727.59;;;5.82;100.00
53619;BME280;68717;53.040;18.488;2024-03-06T00:19:19;101723.97;;;5.83;100.00
53619;BME280;68717;53.040;18.488;2024-03-06T00:19:33;101731.94;;;5.83;100.00
53619;BME280;68717;53.040;18.488;2024-03-06T00:19:47;101732.84;;;5.84;100.00
53619;BME280;68717;53.040;18.488;2024-03-06T00:20:00;101726.72;;;5.82;100.00
53619;BME280;68717;53.040;18.488;2024-03-06T00:20:13;101724.06;;;5.82;100.00
53619;BME280;68717;53.040;18.488;2024-03-06T00:20:27;101727.59;;;5.82;100.00
53619;BME280;68717;53.040;18.488;2024-03-06T00:20:41;101733.81;;;5.81;100.00
53619;BME280;68717;53.040;18.488;2024-03-06T00:20:54;101730.25;;;5.82;100.00
53619;BME280;68717;53.040;18.488;2024-03-06T00:21:08;101726.72;;;5.82;100.00
53619;BME280;68717;53.040;18.488;2024-03-06T00:21:22;101734.72;;;5.82;100.00
53619;BME280;68717;53.040;18.488;2024-03-06T00:21:36;101732.91;;;5.82;100.00
53619;BME280;68717;53.040;18.488;2024-03-06T00:21:49;101738.28;;;5.81;100.00
53619;BME280;68717;53.040;18.488;2024-03-06T00:22:02;101735.63;;;5.81;100.00
53619;BME280;68717;53.040;18.488;2024-03-06T00:22:16;101732.97;;;5.81;100.00
53619;BME280;68717;53.040;18.488;2024-03-06T00:22:33;101732.91;;;5.82;100.00
53619;BME280;68717;53.040;18.488;2024-03-06T00:22:46;101740.88;;;5.82;100.00
53619;BME280;68717;53.040;18.488;2024-03-06T00:22:59;101741.81;;;5.81;100.00
53619;BME280;68717;53.040;18.488;2024-03-06T00:23:12;101737.38;;;5.82;100.00
53619;BME280;68717;53.040;18.488;2024-03-06T00:23:25;101740.03;;;5.82;100.00
53619;BME280;68717;53.040;18.488;2024-03-06T00:23:39;101740.03;;;5.82;100.00
53619;BME280;68717;53.040;18.488;2024-03-06T00:23:52;101740.03;;;5.82;100.00
53619;BME280;68717;53.040;18.488;2024-03-06T00:24:06;101734.72;;;5.82;100.00
53619;BME280;68717;53.040;18.488;2024-03-06T00:24:19;101743.53;;;5.82;100.00
53619;BME280;68717;53.040;18.488;2024-03-06T00:24:32;101740.03;;;5.82;100.00
53619;BME280;68717;53.040;18.488;2024-03-06T00:24:45;101739.16;;;5.81;100.00
53619;BME280;68717;53.040;18.488;2024-03-06T00:24:58;101743.53;;;5.82;100.00
53619;BME280;68717;53.040;18.488;2024-03-06T00:25:11;101737.38;;;5.82;100.00
53619;BME280;68717;53.040;18.488;2024-03-06T00:25:25;101736.47;;;5.81;100.00
53619;BME280;68717;53.040;18.488;2024-03-06T00:25:38;101737.38;;;5.82;100.00
53619;BME280;68717;53.040;18.488;2024-03-06T00:25:51;101739.16;;;5.81;100.00
53619;BME280;68717;53.040;18.488;2024-03-06T00:26:04;101742.69;;;5.82;100.00
53619;BME280;68717;53.040;18.488;2024-03-06T00:26:17;101738.28;;;5.81;100.00
53619;BME280;68717;53.040;18.488;2024-03-06T00:26:30;101742.69;;;5.82;100.00
53619;BME280;68717;53.040;18.488;2024-03-06T00:26:44;101733.81;;;5.81;100.00
53619;BME280;68717;53.040;18.488;2024-03-06T00:26:57;101735.56;;;5.82;100.00
53619;BME280;68717;53.040;18.488;2024-03-06T00:27:10;101741.75;;;5.83;100.00
53619;BME280;68717;53.040;18.488;2024-03-06T00:27:24;101745.25;;;5.83;100.00
53619;BME280;68717;53.040;18.488;2024-03-06T00:27:37;101741.81;;;5.81;100.00
53619;BME280;68717;53.040;18.488;2024-03-06T00:27:50;101743.53;;;5.82;100.00
53619;BME280;68717;53.040;18.488;2024-03-06T00:28:04;101740.88;;;5.82;100.00
53619;BME280;68717;53.040;18.488;2024-03-06T00:28:17;101740.88;;;5.82;100.00
53619;BME280;68717;53.040;18.488;2024-03-06T00:28:30;101742.59;;;5.83;100.00
53619;BME280;68717;53.040;18.488;2024-03-06T00:28:43;101746.13;;;5.84;100.00
53619;BME280;68717;53.040;18.488;2024-03-06T00:28:56;101735.50;;;5.84;100.00
53619;BME280;68717;53.040;18.488;2024-03-06T00:29:09;101747.00;;;5.84;100.00
53619;BME280;68717;53.040;18.488;2024-03-06T00:29:22;101733.69;;;5.84;100.00
53619;BME280;68717;53.040;18.488;2024-03-06T00:29:36;101736.34;;;5.84;100.00
53619;BME280;68717;53.040;18.488;2024-03-06T00:29:50;101745.19;;;5.85;100.00
53619;BME280;68717;53.040;18.488;2024-03-06T00:30:05;101743.38;;;5.85;100.00
53619;BME280;68717;53.040;18.488;2024-03-06T00:30:19;101745.13;;;5.86;100.00
53619;BME280;68717;53.040;18.488;2024-03-06T00:30:32;101738.06;;;5.85;100.00
53619;BME280;68717;53.040;18.488;2024-03-06T00:30:45;101743.38;;;5.85;100.00
53619;BME280;68717;53.040;18.488;2024-03-06T00:30:59;101739.78;;;5.86;100.00
53619;BME280;68717;53.040;18.488;2024-03-06T00:31:13;101745.13;;;5.86;100.00
53619;BME280;68717;53.040;18.488;2024-03-06T00:31:26;101731.81;;;5.86;100.00
53619;BME280;68717;53.040;18.488;2024-03-06T00:31:42;101745.13;;;5.86;100.00
53619;BME280;68717;53.040;18.488;2024-03-06T00:31:56;101742.47;;;5.86;100.00
53619;BME280;68717;53.040;18.488;2024-03-06T00:32:09;101737.97;;;5.87;100.00
53619;BME280;68717;53.040;18.488;2024-03-06T00:32:22;101737.13;;;5.86;100.00
53619;BME280;68717;53.040;18.488;2024-03-06T00:32:36;101738.84;;;5.87;100.00
53619;BME280;68717;53.040;18.488;2024-03-06T00:32:50;101746.81;;;5.87;100.00
53619;BME280;68717;53.040;18.488;2024-03-06T00:33:03;101740.56;;;5.88;100.00
53619;BME280;68717;53.040;18.488;2024-03-06T00:33:16;101737.06;;;5.88;100.00
53619;BME280;68717;53.040;18.488;2024-03-06T00:33:30;101741.50;;;5.87;100.00
53619;BME280;68717;53.040;18.488;2024-03-06T00:33:43;101738.84;;;5.87;100.00
53619;BME280;68717;53.040;18.488;2024-03-06T00:33:56;101738.84;;;5.87;100.00
53619;BME280;68717;53.040;18.488;2024-03-06T00:34:09;101749.47;;;5.87;100.00
53619;BME280;68717;53.040;18.488;2024-03-06T00:34:22;101743.31;;;5.87;100.00
53619;BME280;68717;53.040;18.488;2024-03-06T00:34:35;101745.97;;;5.87;100.00
53619;BME280;68717;53.040;18.488;2024-03-06T00:34:50;101749.47;;;5.87;100.00
53619;BME280;68717;53.040;18.488;2024-03-06T00:35:03;101738.84;;;5.87;100.00
53619;BME280;68717;53.040;18.488;2024-03-06T00:35:16;101743.31;;;5.87;100.00
53619;BME280;68717;53.040;18.488;2024-03-06T00:35:29;101748.63;;;5.87;100.00
53619;BME280;68717;53.040;18.488;2024-03-06T00:35:42;101745.97;;;5.87;100.00
53619;BME280;68717;53.040;18.488;2024-03-06T00:35:55;101747.72;;;5.88;100.00
53619;BME280;68717;53.040;18.488;2024-03-06T00:36:08;101746.81;;;5.87;100.00
53619;BME280;68717;53.040;18.488;2024-03-06T00:36:21;101746.81;;;5.87;100.00
53619;BME280;68717;53.040;18.488;2024-03-06T00:36:35;101747.72;;;5.88;100.00
53619;BME280;68717;53.040;18.488;2024-03-06T00:36:48;101750.38;;;5.88;100.00
53619;BME280;68717;53.040;18.488;2024-03-06T00:37:03;101741.50;;;5.87;100.00
53619;BME280;68717;53.040;18.488;2024-03-06T00:37:16;101751.22;;;5.88;100.00
53619;BME280;68717;53.040;18.488;2024-03-06T00:37:29;101745.06;;;5.88;100.00
53619;BME280;68717;53.040;18.488;2024-03-06T00:37:42;101748.56;;;5.88;100.00
53619;BME280;68717;53.040;18.488;2024-03-06T00:37:55;101748.56;;;5.88;100.00
53619;BME280;68717;53.040;18.488;2024-03-06T00:38:08;101745.91;;;5.88;100.00
53619;BME280;68717;53.040;18.488;2024-03-06T00:38:21;101751.22;;;5.88;100.00
53619;BME280;68717;53.040;18.488;2024-03-06T00:38:34;101751.22;;;5.88;100.00
53619;BME280;68717;53.040;18.488;2024-03-06T00:38:48;101751.22;;;5.88;100.00
53619;BME280;68717;53.040;18.488;2024-03-06T00:39:01;101748.56;;;5.88;100.00
53619;BME280;68717;53.040;18.488;2024-03-06T00:39:17;101752.94;;;5.89;100.00
53619;BME280;68717;53.040;18.488;2024-03-06T00:39:30;101744.94;;;5.89;100.00
53619;BME280;68717;53.040;18.488;2024-03-06T00:39:43;101757.34;;;5.90;100.00
53619;BME280;68717;53.040;18.488;2024-03-06T00:39:56;101744.09;;;5.89;100.00
53619;BME280;68717;53.040;18.488;2024-03-06T00:40:10;101752.00;;;5.90;100.00
53619;BME280;68717;53.040;18.488;2024-03-06T00:40:24;101752.00;;;5.90;100.00
53619;BME280;68717;53.040;18.488;2024-03-06T00:40:37;101745.81;;;5.90;100.00
53619;BME280;68717;53.040;18.488;2024-03-06T00:40:50;101752.00;;;5.90;100.00
53619;BME280;68717;53.040;18.488;2024-03-06T00:41:03;101753.78;;;5.90;100.00
53619;BME280;68717;53.040;18.488;2024-03-06T00:41:16;101753.78;;;5.90;100.00
53619;BME280;68717;53.040;18.488;2024-03-06T00:41:30;101750.19;;;5.91;100.00
53619;BME280;68717;53.040;18.488;2024-03-06T00:41:43;101752.88;;;5.91;100.00
53619;BME280;68717;53.040;18.488;2024-03-06T00:41:56;101752.88;;;5.91;100.00
53619;BME280;68717;53.040;18.488;2024-03-06T00:42:09;101753.72;;;5.91;100.00
53619;BME280;68717;53.040;18.488;2024-03-06T00:42:26;101757.22;;;5.92;100.00
53619;BME280;68717;53.040;18.488;2024-03-06T00:42:39;101754.56;;;5.92;100.00
53619;BME280;68717;53.040;18.488;2024-03-06T00:42:53;101754.56;;;5.92;100.00
53619;BME280;68717;53.040;18.488;2024-03-06T00:43:06;101747.47;;;5.92;100.00
53619;BME280;68717;53.040;18.488;2024-03-06T00:43:19;101752.78;;;5.92;100.00
53619;BME280;68717;53.040;18.488;2024-03-06T00:43:32;101744.81;;;5.92;100.00
53619;BME280;68717;53.040;18.488;2024-03-06T00:43:46;101754.56;;;5.92;100.00
53619;BME280;68717;53.040;18.488;2024-03-06T00:43:59;101745.66;;;5.93;100.00
53619;BME280;68717;53.040;18.488;2024-03-06T00:44:12;101752.78;;;5.92;100.00
53619;BME280;68717;53.040;18.488;2024-03-06T00:44:26;101758.13;;;5.92;100.00
53619;BME280;68717;53.040;18.488;2024-03-06T00:44:39;101758.13;;;5.92;100.00
53619;BME280;68717;53.040;18.488;2024-03-06T00:44:52;101756.31;;;5.93;100.00
53619;BME280;68717;53.040;18.488;2024-03-06T00:45:05;101752.69;;;5.94;100.00
53619;BME280;68717;53.040;18.488;2024-03-06T00:45:19;101760.78;;;5.92;100.00
53619;BME280;68717;53.040;18.488;2024-03-06T00:45:32;101751.91;;;5.92;100.00
53619;BME280;68717;53.040;18.488;2024-03-06T00:45:45;101753.66;;;5.93;100.00
53619;BME280;68717;53.040;18.488;2024-03-06T00:45:59;101760.78;;;5.92;100.00
53619;BME280;68717;53.040;18.488;2024-03-06T00:46:12;101753.72;;;5.91;100.00
53619;BME280;68717;53.040;18.488;2024-03-06T00:46:26;101747.47;;;5.92;100.00
53619;BME280;68717;53.040;18.488;2024-03-06T00:46:39;101757.22;;;5.92;100.00
53619;BME280;68717;53.040;18.488;2024-03-06T00:46:52;101758.13;;;5.92;100.00
53619;BME280;68717;53.040;18.488;2024-03-06T00:47:05;101758.13;;;5.92;100.00
53619;BME280;68717;53.040;18.488;2024-03-06T00:47:18;101754.56;;;5.92;100.00
53619;BME280;68717;53.040;18.488;2024-03-06T00:47:32;101756.31;;;5.93;100.00
53619;BME280;68717;53.040;18.488;2024-03-06T00:47:47;101753.72;;;5.91;100.00
53619;BME280;68717;53.040;18.488;2024-03-06T00:48:01;101750.13;;;5.92;100.00
53619;BME280;68717;53.040;18.488;2024-03-06T00:48:14;101747.47;;;5.92;100.00
53619;BME280;68717;53.040;18.488;2024-03-06T00:48:27;101752.78;;;5.92;100.00
53619;BME280;68717;53.040;18.488;2024-03-06T00:48:40;101755.47;;;5.92;100.00
53619;BME280;68717;53.040;18.488;2024-03-06T00:48:53;101758.13;;;5.92;100.00
53619;BME280;68717;53.040;18.488;2024-03-06T00:49:06;101755.47;;;5.92;100.00
53619;BME280;68717;53.040;18.488;2024-03-06T00:49:19;101750.13;;;5.92;100.00
53619;BME280;68717;53.040;18.488;2024-03-06T00:49:32;101755.47;;;5.92;100.00
53619;BME280;68717;53.040;18.488;2024-03-06T00:49:47;101751.06;;;5.91;100.00
53619;BME280;68717;53.040;18.488;2024-03-06T00:50:00;101757.16;;;5.93;100.00
53619;BME280;68717;53.040;18.488;2024-03-06T00:50:13;101747.47;;;5.92;100.00
53619;BME280;68717;53.040;18.488;2024-03-06T00:50:26;101748.31;;;5.93;100.00
53619;BME280;68717;53.040;18.488;2024-03-06T00:50:39;101748.31;;;5.93;100.00
53619;BME280;68717;53.040;18.488;2024-03-06T00:50:52;101753.66;;;5.93;100.00
53619;BME280;68717;53.040;18.488;2024-03-06T00:51:06;101750.03;;;5.94;100.00
53619;BME280;68717;53.040;18.488;2024-03-06T00:51:19;101752.78;;;5.92;100.00
53619;BME280;68717;53.040;18.488;2024-03-06T00:51:48;101761.56;;;5.94;100.00
53619;BME280;68717;53.040;18.488;2024-03-06T00:52:02;101748.31;;;5.93;100.00
53619;BME280;68717;53.040;18.488;2024-03-06T00:52:16;101744.81;;;5.92;100.00
53619;BME280;68717;53.040;18.488;2024-03-06T00:52:29;101751.84;;;5.93;100.00
53619;BME280;68717;53.040;18.488;2024-03-06T00:52:42;101750.03;;;5.94;100.00
53619;BME280;68717;53.040;18.488;2024-03-06T00:52:55;101757.16;;;5.93;100.00
53619;BME280;68717;53.040;18.488;2024-03-06T00:53:09;101747.38;;;5.94;100.00
53619;BME280;68717;53.040;18.488;2024-03-06T00:53:22;101747.38;;;5.94;100.00
53619;BME280;68717;53.040;18.488;2024-03-06T00:53:35;101749.19;;;5.93;100.00
53619;BME280;68717;53.040;18.488;2024-03-06T00:53:49;101749.19;;;5.93;100.00
53619;BME280;68717;53.040;18.488;2024-03-06T00:54:02;101746.50;;;5.93;100.00
53619;BME280;68717;53.040;18.488;2024-03-06T00:54:15;101749.19;;;5.93;100.00
53619;BME280;68717;53.040;18.488;2024-03-06T00:54:30;101746.50;;;5.93;100.00
53619;BME280;68717;53.040;18.488;2024-03-06T00:54:43;101753.66;;;5.93;100.00
53619;BME280;68717;53.040;18.488;2024-03-06T00:54:56;101745.66;;;5.93;100.00
53619;BME280;68717;53.040;18.488;2024-03-06T00:55:09;101747.38;;;5.94;100.00
53619;BME280;68717;53.040;18.488;2024-03-06T00:55:22;101751.00;;;5.93;100.00
53619;BME280;68717;53.040;18.488;2024-03-06T00:55:35;101744.81;;;5.92;100.00
53619;BME280;68717;53.040;18.488;2024-03-06T00:55:48;101745.66;;;5.93;100.00
53619;BME280;68717;53.040;18.488;2024-03-06T00:56:02;101747.47;;;5.92;100.00
53619;BME280;68717;53.040;18.488;2024-03-06T00:56:16;101758.13;;;5.92;100.00
53619;BME280;68717;53.040;18.488;2024-03-06T00:56:29;101749.19;;;5.93;100.00
53619;BME280;68717;53.040;18.488;2024-03-06T00:56:43;101751.84;;;5.93;100.00
53619;BME280;68717;53.040;18.488;2024-03-06T00:56:56;101752.78;;;5.92;100.00
53619;BME280;68717;53.040;18.488;2024-03-06T00:57:10;101748.31;;;5.93;100.00
53619;BME280;68717;53.040;18.488;2024-03-06T00:57:23;101754.56;;;5.92;100.00
53619;BME280;68717;53.040;18.488;2024-03-06T00:57:36;101753.72;;;5.91;100.00
53619;BME280;68717;53.040;18.488;2024-03-06T00:57:50;101762.56;;;5.92;100.00
53619;BME280;68717;53.040;18.488;2024-03-06T00:58:03;101759.91;;;5.92;100.00
53619;BME280;68717;53.040;18.488;2024-03-06T00:58:16;101751.91;;;5.92;100.00
53619;BME280;68717;53.040;18.488;2024-03-06T00:58:30;101757.22;;;5.92;100.00
53619;BME280;68717;53.040;18.488;2024-03-06T00:58:43;101755.47;;;5.92;100.00
53619;BME280;68717;53.040;18.488;2024-03-06T00:58:57;101759.03;;;5.91;100.00
53619;BME280;68717;53.040;18.488;2024-03-06T00:59:10;101760.78;;;5.92;100.00
53619;BME280;68717;53.040;18.488;2024-03-06T00:59:23;101757.22;;;5.92;100.00
53619;BME280;68717;53.040;18.488;2024-03-06T00:59:38;101760.78;;;5.92;100.00
53619;BME280;68717;53.040;18.488;2024-03-06T00:59:51;101756.31;;;5.93;100.00
53619;BME280;68717;53.040;18.488;2024-03-06T01:00:05;101760.78;;;5.92;100.00
53619;BME280;68717;53.040;18.488;2024-03-06T01:00:23;101762.47;;;5.93;100.00
53619;BME280;68717;53.040;18.488;2024-03-06T01:00:36;101755.47;;;5.92;100.00
53619;BME280;68717;53.040;18.488;2024-03-06T01:00:49;101755.47;;;5.92;100.00
53619;BME280;68717;53.040;18.488;2024-03-06T01:01:04;101762.47;;;5.93;100.00
53619;BME280;68717;53.040;18.488;2024-03-06T01:01:20;101758.03;;;5.94;100.00
53619;BME280;68717;53.040;18.488;2024-03-06T01:01:33;101755.47;;;5.92;100.00
53619;BME280;68717;53.040;18.488;2024-03-06T01:01:46;101759.81;;;5.93;100.00
53619;BME280;68717;53.040;18.488;2024-03-06T01:01:59;101758.13;;;5.92;100.00
53619;BME280;68717;53.040;18.488;2024-03-06T01:02:13;101762.47;;;5.93;100.00
53619;BME280;68717;53.040;18.488;2024-03-06T01:02:27;101762.47;;;5.93;100.00
53619;BME280;68717;53.040;18.488;2024-03-06T01:02:40;101768.66;;;5.94;100.00
53619;BME280;68717;53.040;18.488;2024-03-06T01:02:53;101761.63;;;5.93;100.00
53619;BME280;68717;53.040;18.488;2024-03-06T01:03:06;101761.63;;;5.93;100.00
53619;BME280;68717;53.040;18.488;2024-03-06T01:03:19;101755.47;;;5.92;100.00
53619;BME280;68717;53.040;18.488;2024-03-06T01:03:33;101759.03;;;5.91;100.00
53619;BME280;68717;53.040;18.488;2024-03-06T01:03:46;101764.28;;;5.93;100.00
53619;BME280;68717;53.040;18.488;2024-03-06T01:03:58;101760.78;;;5.92;100.00
53619;BME280;68717;53.040;18.488;2024-03-06T01:04:13;101761.63;;;5.93;100.00
53619;BME280;68717;53.040;18.488;2024-03-06T01:04:26;101759.91;;;5.92;100.00
53619;BME280;68717;53.040;18.488;2024-03-06T01:04:40;101761.63;;;5.93;100.00
53619;BME280;68717;53.040;18.488;2024-03-06T01:04:53;101766.09;;;5.92;100.00
53619;BME280;68717;53.040;18.488;2024-03-06T01:05:07;101765.22;;;5.92;100.00
53619;BME280;68717;53.040;18.488;2024-03-06T01:05:20;101766.09;;;5.92;100.00
53619;BME280;68717;53.040;18.488;2024-03-06T01:05:33;101768.75;;;5.92;100.00
53619;BME280;68717;53.040;18.488;2024-03-06T01:05:46;101763.44;;;5.92;100.00
53619;BME280;68717;53.040;18.488;2024-03-06T01:06:00;101765.22;;;5.92;100.00
53619;BME280;68717;53.040;18.488;2024-03-06T01:06:14;101762.47;;;5.93;100.00
53619;BME280;68717;53.040;18.488;2024-03-06T01:06:27;101759.03;;;5.91;100.00
53619;BME280;68717;53.040;18.488;2024-03-06T01:06:40;101757.22;;;5.92;100.00
53619;BME280;68717;53.040;18.488;2024-03-06T01:06:53;101756.38;;;5.91;100.00
53619;BME280;68717;53.040;18.488;2024-03-06T01:07:06;101754.56;;;5.92;100.00
53619;BME280;68717;53.040;18.488;2024-03-06T01:07:19;101759.91;;;5.92;100.00
53619;BME280;68717;53.040;18.488;2024-03-06T01:07:33;101763.44;;;5.92;100.00
53619;BME280;68717;53.040;18.488;2024-03-06T01:07:47;101755.47;;;5.92;100.00
53619;BME280;68717;53.040;18.488;2024-03-06T01:08:00;101759.81;;;5.93;100.00
53619;BME280;68717;53.040;18.488;2024-03-06T01:08:13;101759.03;;;5.91;100.00
53619;BME280;68717;53.040;18.488;2024-03-06T01:08:28;101761.63;;;5.93;100.00
53619;BME280;68717;53.040;18.488;2024-03-06T01:08:43;101757.16;;;5.93;100.00
53619;BME280;68717;53.040;18.488;2024-03-06T01:08:56;101757.16;;;5.93;100.00
53619;BME280;68717;53.040;18.488;2024-03-06T01:09:11;101750.13;;;5.92;100.00
53619;BME280;68717;53.040;18.488;2024-03-06T01:09:24;101758.97;;;5.93;100.00
53619;BME280;68717;53.040;18.488;2024-03-06T01:09:39;101754.56;;;5.92;100.00
53619;BME280;68717;53.040;18.488;2024-03-06T01:09:52;101748.31;;;5.93;100.00
53619;BME280;68717;53.040;18.488;2024-03-06T01:10:06;101755.47;;;5.92;100.00
53619;BME280;68717;53.040;18.488;2024-03-06T01:10:20;101746.50;;;5.93;100.00